Time;durP1;ratioP1;P1;durP2;ratioP2;P2;SDS_P1;SDS_P2;PMS_P1;PMS_P2;Temp;Humidity;BMP_temperature;BMP_pressure;BME280_temperature;BME280_humidity;BME280_pressure;Samples;Min_cycle;Max_cycle;Signal;HPM_P1;HPM_P2
2021/11/08 00:01:20;;;;;;;226.45;186.07;;;;;;;8.19;100.00;101235.34;5026370;28;20049;-79
2021/11/08 00:03:49;;;;;;;226.95;184.70;;;;;;;8.14;100.00;101234.25;5019321;28;20075;-78
2021/11/08 00:06:18;;;;;;;229.85;189.40;;;;;;;8.02;100.00;101228.56;5029018;28;20052;-78
2021/11/08 00:08:45;;;;;;;203.73;167.75;;;;;;;8.14;100.00;101226.31;5021113;28;20057;-77
2021/11/08 00:11:12;;;;;;;212.18;178.52;;;;;;;8.14;100.00;101243.03;5025251;28;20135;-78
2021/11/08 00:13:39;;;;;;;220.50;181.40;;;;;;;8.38;100.00;101228.81;5032208;28;20068;-77
2021/11/08 00:16:12;;;;;;;216.68;193.43;;;;;;;8.43;100.00;101225.59;5028423;28;20492;-78
2021/11/08 00:18:45;;;;;;;231.02;205.93;;;;;;;8.47;100.00;101217.13;5041919;28;20529;-76
2021/11/08 00:21:12;;;;;;;288.10;223.25;;;;;;;8.46;100.00;101206.72;5024124;28;20053;-75
2021/11/08 00:23:39;;;;;;;237.52;183.45;;;;;;;8.36;100.00;101224.66;5036018;28;20069;-77
2021/11/08 00:26:06;;;;;;;223.38;174.98;;;;;;;8.15;100.00;101228.78;5025420;28;20053;-79
2021/11/08 00:28:33;;;;;;;212.82;178.75;;;;;;;8.22;100.00;101236.81;5029510;28;20050;-77
2021/11/08 00:30:59;;;;;;;239.35;209.10;;;;;;;8.52;100.00;101221.06;5038483;28;20057;-78
2021/11/08 00:33:26;;;;;;;227.82;202.57;;;;;;;8.38;100.00;101228.81;5028427;28;20114;-76
2021/11/08 00:35:56;;;;;;;244.55;208.57;;;;;;;8.49;100.00;101220.41;5028504;28;20061;-78
2021/11/08 00:38:24;;;;;;;262.88;210.13;;;;;;;8.49;100.00;101220.41;5032109;28;20045;-78
2021/11/08 00:40:51;;;;;;;268.08;208.95;;;;;;;8.56;100.00;101220.50;5028836;28;20518;-78
2021/11/08 00:43:19;;;;;;;233.70;182.10;;;;;;;8.56;100.00;101219.69;5030641;28;20053;-75
2021/11/08 00:45:46;;;;;;;245.60;207.15;;;;;;;8.68;100.00;101219.09;5024505;28;20386;-76
2021/11/08 00:48:14;;;;;;;267.85;226.35;;;;;;;8.74;100.00;101217.50;5034333;28;20060;-77
2021/11/08 00:50:42;;;;;;;271.83;225.10;;;;;;;8.76;100.00;101210.22;5030434;28;20118;-75
2021/11/08 00:53:10;;;;;;;248.43;197.23;;;;;;;8.72;100.00;101203.66;5026444;28;20061;-75
2021/11/08 00:55:39;;;;;;;272.58;193.93;;;;;;;8.88;100.00;101202.66;5027445;28;20049;-76
2021/11/08 00:58:08;;;;;;;269.30;211.45;;;;;;;8.85;100.00;101197.72;5024355;28;20182;-76
2021/11/08 01:00:35;;;;;;;316.48;230.52;;;;;;;8.88;100.00;101198.16;5034621;28;20060;-78
2021/11/08 01:03:05;;;;;;;302.25;249.18;;;;;;;8.78;100.00;101199.47;5027467;28;20127;-77
2021/11/08 01:05:31;;;;;;;339.25;263.67;;;;;;;8.82;100.00;101192.78;5029376;28;20068;-77
2021/11/08 01:07:59;;;;;;;321.27;239.18;;;;;;;8.87;100.00;101182.47;5030944;28;20068;-76
2021/11/08 01:10:28;;;;;;;313.63;255.40;;;;;;;8.70;100.00;101193.22;5034912;28;20057;-76
2021/11/08 01:12:55;;;;;;;299.83;236.98;;;;;;;8.64;100.00;101186.00;5026430;28;20053;-77
2021/11/08 01:15:21;;;;;;;328.58;250.25;;;;;;;8.70;100.00;101187.94;5027568;28;20584;-75
2021/11/08 01:17:50;;;;;;;308.90;231.15;;;;;;;8.74;100.00;101184.91;5032306;28;20456;-75
2021/11/08 01:20:17;;;;;;;324.92;237.18;;;;;;;8.94;100.00;101170.13;5034145;28;20398;-76
2021/11/08 01:22:44;;;;;;;419.13;239.88;;;;;;;8.67;100.00;101167.09;5024883;28;20402;-75
2021/11/08 01:25:12;;;;;;;341.13;268.60;;;;;;;8.85;100.00;101171.22;5031845;28;20447;-77
2021/11/08 01:27:43;;;;;;;308.95;230.20;;;;;;;8.99;100.00;101165.09;5027958;28;20053;-76
2021/11/08 01:30:14;;;;;;;303.42;234.23;;;;;;;9.02;100.00;101166.56;5026909;28;20459;-76
2021/11/08 01:32:41;;;;;;;330.15;268.75;;;;;;;9.13;100.00;101153.63;5028144;28;20583;-78
2021/11/08 01:35:09;;;;;;;342.80;270.38;;;;;;;9.12;100.00;101138.75;5028773;28;20144;-78
2021/11/08 01:37:37;;;;;;;318.65;243.77;;;;;;;9.05;100.00;101143.16;5027726;28;20049;-76
2021/11/08 01:40:05;;;;;;;306.63;251.35;;;;;;;9.10;100.00;101154.00;5030468;28;20226;-77
2021/11/08 01:42:31;;;;;;;333.13;271.27;;;;;;;9.14;100.00;101146.53;5026177;28;20496;-76
2021/11/08 01:44:59;;;;;;;309.23;233.50;;;;;;;9.22;100.00;101148.25;5026024;28;20112;-78
2021/11/08 01:47:28;;;;;;;304.98;239.25;;;;;;;9.25;100.00;101135.44;5031950;28;20091;-76
2021/11/08 01:49:54;;;;;;;297.40;238.90;;;;;;;9.35;100.00;101143.91;5028937;28;20137;-77
2021/11/08 01:52:21;;;;;;;319.65;270.27;;;;;;;9.30;100.00;101126.94;5035767;28;20053;-78
2021/11/08 01:54:48;;;;;;;431.30;307.98;;;;;;;9.17;100.00;101117.00;5036914;28;20134;-76
2021/11/08 01:57:15;;;;;;;386.98;281.40;;;;;;;9.29;100.00;101112.03;5029525;28;20115;-77
2021/11/08 01:59:43;;;;;;;346.73;258.73;;;;;;;9.33;100.00;101115.97;5035019;28;20147;-76
2021/11/08 02:02:11;;;;;;;334.42;248.57;;;;;;;9.37;100.00;101118.03;5029492;28;20510;-76
2021/11/08 02:04:38;;;;;;;352.77;264.42;;;;;;;9.34;100.00;101106.97;5030776;28;20485;-76
2021/11/08 02:07:05;;;;;;;312.92;260.52;;;;;;;9.41;100.00;101113.19;5031134;28;20053;-76
2021/11/08 02:09:32;;;;;;;297.50;265.20;;;;;;;9.49;100.00;101110.41;5032839;28;20060;-78
2021/11/08 02:11:59;;;;;;;299.77;264.15;;;;;;;9.30;100.00;101101.25;5032832;28;20404;-76
2021/11/08 02:14:25;;;;;;;269.90;239.80;;;;;;;9.46;100.00;101096.69;5033371;28;20046;-77
2021/11/08 02:16:52;;;;;;;302.58;250.50;;;;;;;9.49;100.00;101096.31;5028122;28;20057;-78
2021/11/08 02:19:20;;;;;;;308.17;266.35;;;;;;;9.51;100.00;101095.13;5029319;28;20045;-78
2021/11/08 02:21:50;;;;;;;306.67;274.95;;;;;;;9.46;100.00;101088.75;5033160;28;20148;-78
2021/11/08 02:24:18;;;;;;;313.25;271.70;;;;;;;9.43;100.00;101087.28;5038572;28;20060;-75
2021/11/08 02:26:46;;;;;;;298.95;265.20;;;;;;;9.42;100.00;101096.25;5031344;28;20049;-78
2021/11/08 02:29:14;;;;;;;311.25;271.95;;;;;;;9.52;100.00;101095.94;5028351;28;20497;-76
2021/11/08 02:31:41;;;;;;;307.40;264.50;;;;;;;9.51;100.00;101102.28;5030151;28;20072;-77
2021/11/08 02:34:08;;;;;;;312.33;278.50;;;;;;;9.53;100.00;101089.63;5029853;28;20054;-76
2021/11/08 02:36:41;;;;;;;336.17;299.58;;;;;;;9.54;100.00;101089.44;5024686;28;20053;-81
2021/11/08 02:39:13;;;;;;;332.05;290.17;;;;;;;9.38;100.00;101098.47;5029115;28;20125;-77
2021/11/08 02:41:40;;;;;;;302.95;252.95;;;;;;;9.48;100.00;101089.41;5028990;28;20095;-78
2021/11/08 02:44:08;;;;;;;300.05;253.07;;;;;;;9.45;100.00;101097.72;5032157;28;20045;-76
2021/11/08 02:46:39;;;;;;;319.05;269.20;;;;;;;9.40;100.00;101101.75;5035266;28;20647;-78
2021/11/08 02:49:08;;;;;;;331.13;294.20;;;;;;;9.45;100.00;101097.72;5034339;28;20053;-80
2021/11/08 02:51:36;;;;;;;336.90;288.75;;;;;;;9.58;100.00;101096.00;5033023;28;20041;-75
2021/11/08 02:54:10;;;;;;;316.65;276.65;;;;;;;9.53;100.00;101089.63;5030922;28;20111;-76
2021/11/08 02:56:38;;;;;;;343.85;275.73;;;;;;;9.52;100.00;101090.66;5031117;28;20387;-77
2021/11/08 02:59:04;;;;;;;365.30;292.48;;;;;;;9.42;100.00;101096.25;5035489;28;20053;-78
2021/11/08 03:01:32;;;;;;;339.85;283.50;;;;;;;9.47;100.00;101093.88;5123605;22;20054;-76
2021/11/08 03:04:01;;;;;;;397.67;318.98;;;;;;;-143.39;100.00;64013.03;5000346;28;20064;-76
2021/11/08 03:06:31;;;;;;;385.98;320.67;;;;;;;-143.39;100.00;64013.03;5003313;28;20058;-77
2021/11/08 03:09:01;;;;;;;326.20;263.25;;;;;;;-143.39;100.00;64013.03;5000984;28;20073;-77
2021/11/08 03:11:27;;;;;;;359.40;270.92;;;;;;;-143.39;100.00;64013.03;4998599;28;20054;-78
2021/11/08 03:14:00;;;;;;;350.95;296.50;;;;;;;-143.39;100.00;64013.03;5004939;28;20054;-76
2021/11/08 03:16:36;;;;;;;353.13;299.63;;;;;;;-143.39;100.00;64013.03;5004756;28;20057;-77
2021/11/08 03:19:14;;;;;;;353.75;290.08;;;;;;;-143.39;100.00;64013.03;5004220;28;20050;-77
2021/11/08 03:21:41;;;;;;;359.70;298.77;;;;;;;-143.39;100.00;64013.03;5005130;28;20673;-78
2021/11/08 03:24:08;;;;;;;354.27;275.17;;;;;;;-143.39;100.00;64013.03;5005882;28;20465;-77
2021/11/08 03:26:43;;;;;;;352.17;276.77;;;;;;;-143.39;100.00;64013.03;5005834;28;20060;-75
2021/11/08 03:29:12;;;;;;;327.38;247.77;;;;;;;-143.39;100.00;64013.03;5004418;28;20061;-78
2021/11/08 03:31:40;;;;;;;341.92;283.55;;;;;;;-143.39;100.00;64013.03;4999644;28;20057;-76
2021/11/08 03:34:09;;;;;;;360.48;310.25;;;;;;;9.44;100.00;101088.09;4998816;28;20088;-75
2021/11/08 03:36:36;;;;;;;340.08;301.35;;;;;;;9.54;100.00;101094.75;5001126;28;20068;-77
2021/11/08 03:39:05;;;;;;;343.33;288.45;;;;;;;9.42;100.00;101076.88;5004806;28;20077;-75
2021/11/08 03:41:32;;;;;;;354.98;279.48;;;;;;;9.45;100.00;101077.34;5004757;28;20124;-76
2021/11/08 03:43:59;;;;;;;351.52;287.58;;;;;;;9.53;100.00;101073.72;5003071;28;20053;-77
2021/11/08 03:46:27;;;;;;;363.80;324.08;;;;;;;9.62;100.00;101072.56;5003488;28;20056;-76
2021/11/08 03:48:54;;;;;;;356.35;303.63;;;;;;;9.58;100.00;101073.97;5001615;28;20053;-78
2021/11/08 03:51:21;;;;;;;340.42;299.33;;;;;;;9.56;100.00;101065.38;5005372;28;20054;-76
2021/11/08 03:53:47;;;;;;;338.38;271.20;;;;;;;9.45;100.00;101068.56;5005230;28;20949;-77
2021/11/08 03:56:14;;;;;;;323.17;269.63;;;;;;;9.55;100.00;101063.75;5007469;28;20050;-77
2021/11/08 03:58:41;;;;;;;325.20;260.65;;;;;;;-143.39;100.00;64013.03;5002035;28;20117;-78
2021/11/08 04:01:08;;;;;;;357.25;308.35;;;;;;;-143.39;100.00;64013.03;5004567;28;20127;-77
2021/11/08 04:03:36;;;;;;;352.05;298.80;;;;;;;-143.39;100.00;64013.03;5004272;28;20049;-75
2021/11/08 04:06:04;;;;;;;345.98;279.90;;;;;;;-143.39;100.00;64013.03;5002984;28;20490;-77
2021/11/08 04:08:31;;;;;;;326.35;262.23;;;;;;;-143.39;100.00;64013.03;5006789;28;20046;-76
2021/11/08 04:10:58;;;;;;;360.17;284.08;;;;;;;-143.39;100.00;64013.03;5006591;28;20054;-76
2021/11/08 04:13:30;;;;;;;338.30;251.18;;;;;;;-143.39;100.00;64013.03;5004200;28;20545;-76
2021/11/08 04:16:00;;;;;;;360.48;288.40;;;;;;;-143.39;100.00;64013.03;5002543;28;20147;-78
2021/11/08 04:18:29;;;;;;;328.13;267.90;;;;;;;9.63;100.00;101042.41;4998356;28;20128;-78
2021/11/08 04:20:59;;;;;;;367.17;322.98;;;;;;;9.63;100.00;101045.06;5006395;28;20140;-78
2021/11/08 04:23:26;;;;;;;350.08;288.58;;;;;;;9.60;100.00;101037.47;5003323;28;20149;-78
2021/11/08 04:25:53;;;;;;;346.98;269.67;;;;;;;9.53;100.00;101045.38;5007233;28;20054;-80
2021/11/08 04:28:21;;;;;;;329.73;260.95;;;;;;;9.64;100.00;101034.25;5005034;28;20546;-78
2021/11/08 04:30:47;;;;;;;346.98;292.98;;;;;;;9.62;100.00;101046.03;4999814;28;20060;-77
2021/11/08 04:33:24;;;;;;;330.80;290.63;;;;;;;9.62;100.00;101043.41;4999885;28;20060;-78
2021/11/08 04:36:02;;;;;;;321.10;278.92;;;;;;;9.64;100.00;101039.53;5004746;28;20056;-78
2021/11/08 04:38:41;;;;;;;314.65;265.27;;;;;;;9.69;100.00;101049.59;5004341;28;20049;-77
2021/11/08 04:41:15;;;;;;;315.80;259.27;;;;;;;9.69;100.00;101040.81;5003496;28;20124;-77
2021/11/08 04:43:54;;;;;;;302.83;246.38;;;;;;;9.58;100.00;101042.97;5007132;28;20056;-76
2021/11/08 04:49:16;;;;;;;295.17;237.82;;;;;;;9.56;100.00;101050.31;5007245;28;20211;-77
2021/11/08 04:51:52;;;;;;;294.05;232.23;;;;;;;9.70;100.00;101063.66;4999575;28;20038;-74
2021/11/08 04:54:28;;;;;;;279.73;248.55;;;;;;;9.75;100.00;101064.75;5004320;28;20046;-78
2021/11/08 04:57:24;;;;;;;284.63;238.68;;;;;;;9.84;100.00;101052.16;5003718;28;20133;-78
2021/11/08 05:23:33;;;;;;;284.20;257.73;;;;;;;9.70;100.00;101084.88;5091500;28;20059;-78
2021/11/08 05:29:52;;;;;;;282.92;255.35;;;;;;;9.61;100.00;101089.50;5090470;28;20047;-78
2021/11/08 05:31:32;;;;;;;267.48;240.77;;;;;;;9.71;100.00;101078.56;5089220;28;20040;-79
2021/11/08 05:33:59;;;;;;;267.55;240.60;;;;;;;10.04;100.00;101078.81;5088984;28;20059;-78
2021/11/08 05:36:26;;;;;;;287.60;259.55;;;;;;;10.00;100.00;101074.94;5087578;28;20048;-79
2021/11/08 05:38:53;;;;;;;278.13;250.48;;;;;;;9.99;100.00;101068.00;5088261;28;20472;-77
2021/11/08 05:41:19;;;;;;;252.77;226.82;;;;;;;9.91;100.00;101078.75;5087451;28;20379;-79
2021/11/08 05:43:46;;;;;;;268.70;241.65;;;;;;;9.81;100.00;101071.13;5084662;28;20480;-79
2021/11/08 05:46:14;;;;;;;272.23;244.65;;;;;;;9.86;100.00;101089.91;5087957;28;20132;-80
2021/11/08 05:48:42;;;;;;;268.90;242.40;;;;;;;9.84;100.00;101091.97;5087086;28;20139;-80
2021/11/08 05:51:09;;;;;;;278.60;251.48;;;;;;;9.73;100.00;101101.25;5088804;28;20056;-79
2021/11/08 05:53:37;;;;;;;272.75;246.10;;;;;;;9.80;100.00;101093.34;5087989;28;20464;-78
2021/11/08 05:56:11;;;;;;;266.88;240.70;;;;;;;9.77;100.00;101113.13;5089589;28;20071;-80
2021/11/08 05:58:57;;;;;;;274.77;247.43;;;;;;;9.84;100.00;101124.59;5088482;28;20113;-79
2021/11/08 06:51:00;;;;;;;359.02;322.52;;;;;;;11.28;100.00;101085.97;5010244;28;20440;-78
2021/11/08 06:53:31;;;;;;;290.70;263.17;;;;;;;10.38;100.00;101086.03;5009862;28;20049;-78
2021/11/08 06:55:58;;;;;;;284.75;258.00;;;;;;;10.17;100.00;101094.84;5036347;28;20120;-79
2021/11/08 06:58:27;;;;;;;311.88;283.17;;;;;;;10.23;100.00;101101.22;5073549;28;20040;-77
2021/11/08 07:00:56;;;;;;;287.02;260.15;;;;;;;10.25;100.00;101093.88;5071513;28;20044;-79
2021/11/08 07:03:23;;;;;;;293.95;266.67;;;;;;;10.29;100.00;101106.59;5072282;28;20737;-79
2021/11/08 07:05:50;;;;;;;300.65;271.80;;;;;;;10.30;100.00;101092.31;5072314;28;20057;-78
2021/11/08 07:08:17;;;;;;;306.13;276.85;;;;;;;10.38;100.00;101094.00;5071527;28;20049;-79
2021/11/08 07:10:45;;;;;;;312.65;281.55;;;;;;;10.38;100.00;101083.38;5072673;28;20045;-79
2021/11/08 07:13:13;;;;;;;323.35;293.55;;;;;;;10.37;100.00;101081.72;5072460;28;20131;-79
2021/11/08 07:15:41;;;;;;;322.98;293.08;;;;;;;10.35;100.00;101088.25;5070855;28;20454;-83
2021/11/08 07:18:08;;;;;;;321.80;291.33;;;;;;;10.31;100.00;101085.97;5073318;28;20055;-79
2021/11/08 07:20:34;;;;;;;325.15;294.00;;;;;;;10.36;100.00;101080.09;5073226;28;20056;-78
2021/11/08 07:23:01;;;;;;;312.95;282.13;;;;;;;10.31;100.00;101087.81;5072143;28;20182;-79
2021/11/08 07:25:28;;;;;;;296.15;268.05;;;;;;;10.34;100.00;101084.78;5070057;28;20048;-78
2021/11/08 07:27:56;;;;;;;281.55;254.52;;;;;;;10.41;100.00;101093.63;5072035;28;20055;-80
2021/11/08 07:30:24;;;;;;;297.60;267.52;;;;;;;10.34;100.00;101081.28;5070123;28;20064;-79
2021/11/08 07:32:51;;;;;;;307.85;277.80;;;;;;;10.31;100.00;101101.91;5071331;28;20102;-78
2021/11/08 07:35:18;;;;;;;316.58;285.10;;;;;;;10.42;100.00;101075.84;5071636;28;20044;-82
2021/11/08 07:37:45;;;;;;;325.50;292.55;;;;;;;10.60;100.00;101085.94;5069616;28;20044;-78
2021/11/08 07:40:13;;;;;;;342.35;305.90;;;;;;;10.43;100.00;101102.19;5070988;28;20245;-80
2021/11/08 07:42:42;;;;;;;310.27;279.67;;;;;;;10.36;100.00;101098.69;5065199;28;20044;-79
2021/11/08 07:45:10;;;;;;;352.08;315.40;;;;;;;10.44;100.00;101093.22;5072372;28;20055;-78
2021/11/08 07:47:37;;;;;;;321.30;290.10;;;;;;;10.45;100.00;101097.50;5071595;28;20072;-79
2021/11/08 07:50:05;;;;;;;331.48;297.55;;;;;;;10.44;100.00;101100.34;5072373;28;20056;-80
2021/11/08 07:52:32;;;;;;;308.50;278.35;;;;;;;10.40;100.00;101110.53;5071714;28;20048;-79
2021/11/08 07:54:58;;;;;;;338.95;306.83;;;;;;;10.49;100.00;101097.94;5070758;28;20127;-80
2021/11/08 07:57:25;;;;;;;279.08;252.82;;;;;;;10.55;100.00;101126.38;5071253;28;20053;-79
2021/11/08 07:59:52;;;;;;;266.23;241.82;;;;;;;10.76;100.00;101117.47;5070670;28;20056;-78
2021/11/08 08:02:20;;;;;;;272.45;248.55;;;;;;;10.85;100.00;101110.16;5069674;28;20052;-78
2021/11/08 08:04:47;;;;;;;290.42;265.08;;;;;;;10.84;100.00;101093.41;5071904;28;20053;-79
2021/11/08 08:07:14;;;;;;;298.58;272.02;;;;;;;10.95;100.00;101066.28;5071653;28;20115;-79
2021/11/08 08:09:41;;;;;;;299.08;273.40;;;;;;;10.93;100.00;101044.38;5071021;28;20048;-79
2021/11/08 08:12:09;;;;;;;285.05;259.95;;;;;;;11.20;100.00;101044.44;5071344;28;20052;-79
2021/11/08 08:14:36;;;;;;;309.30;281.27;;;;;;;11.43;100.00;101044.88;5069700;28;20040;-81
2021/11/08 08:17:04;;;;;;;308.05;280.17;;;;;;;11.26;100.00;101147.34;5071082;28;20045;-80
2021/11/08 08:19:32;;;;;;;294.67;267.95;;;;;;;11.33;100.00;101124.25;5073656;28;20056;-79
2021/11/08 08:22:01;;;;;;;279.38;253.98;;;;;;;11.64;100.00;101097.06;5071671;28;20059;-79
2021/11/08 08:24:29;;;;;;;279.63;253.43;;;;;;;11.59;100.00;101149.25;5071127;28;20048;-79
2021/11/08 08:26:56;;;;;;;284.67;258.95;;;;;;;11.71;100.00;101105.06;5071247;28;20055;-78
2021/11/08 08:29:22;;;;;;;296.88;268.77;;;;;;;11.70;100.00;101130.03;5071347;28;20123;-81
2021/11/08 08:31:50;;;;;;;268.67;242.60;;;;;;;12.09;100.00;101123.13;5069948;28;20049;-79
2021/11/08 08:34:18;;;;;;;290.35;263.90;;;;;;;12.03;100.00;101114.09;5072086;28;20489;-79
2021/11/08 08:36:48;;;;;;;281.17;256.20;;;;;;;11.89;100.00;101110.66;5072346;28;20070;-79
2021/11/08 08:39:16;;;;;;;280.67;255.50;;;;;;;11.95;100.00;101111.63;5068908;28;20092;-78
2021/11/08 08:41:43;;;;;;;318.70;289.85;;;;;;;11.86;100.00;101118.19;5070696;28;20048;-77
2021/11/08 08:44:13;;;;;;;292.25;265.40;;;;;;;11.99;100.00;101118.22;5070806;28;20083;-77
2021/11/08 08:46:40;;;;;;;290.40;265.38;;;;;;;12.38;100.00;101097.88;5071087;28;20045;-79
2021/11/08 08:49:07;;;;;;;272.10;247.38;;;;;;;12.30;100.00;101096.25;5070312;28;20048;-79
2021/11/08 08:51:34;;;;;;;293.50;265.35;;;;;;;12.57;100.00;101072.22;5069281;28;20056;-77
2021/11/08 08:54:03;;;;;;;279.40;254.05;;;;;;;12.87;100.00;101056.50;5070411;28;20521;-78
2021/11/08 08:56:29;;;;;;;280.08;254.43;;;;;;;13.11;100.00;101049.63;5070628;28;20169;-79
2021/11/08 08:58:56;;;;;;;279.25;253.25;;;;;;;13.40;100.00;101029.53;5070187;28;20056;-79
2021/11/08 09:01:25;;;;;;;302.23;275.17;;;;;;;13.73;100.00;101015.91;5071671;28;20078;-78
2021/11/08 09:03:52;;;;;;;272.85;246.77;;;;;;;13.55;100.00;101013.19;5072150;28;20110;-78
2021/11/08 09:06:19;;;;;;;296.33;268.88;;;;;;;13.70;100.00;101004.84;5069231;28;20377;-79
2021/11/08 09:08:46;;;;;;;294.67;267.77;;;;;;;13.74;100.00;101012.22;5070315;28;20098;-82
2021/11/08 09:11:15;;;;;;;260.80;235.85;;;;;;;13.73;100.00;101002.56;5070061;28;20044;-79
2021/11/08 09:13:42;;;;;;;234.73;212.95;;;;;;;13.07;100.00;101027.06;5072066;28;20095;-78
2021/11/08 09:16:12;;;;;;;226.15;204.00;;;;;;;12.90;100.00;101056.09;5070188;28;20411;-79
2021/11/08 09:18:39;;;;;;;257.23;233.15;;;;;;;12.92;100.00;101071.84;5070900;28;20493;-78
2021/11/08 09:21:06;;;;;;;254.48;230.85;;;;;;;12.59;100.00;101078.97;5072604;28;20052;-78
2021/11/08 09:23:32;;;;;;;268.23;243.48;;;;;;;12.82;100.00;101067.78;5070248;28;20041;-79
2021/11/08 09:25:59;;;;;;;248.77;226.27;;;;;;;13.16;100.00;101049.78;5072895;28;20041;-78
2021/11/08 09:28:27;;;;;;;231.43;208.95;;;;;;;12.78;100.00;101065.78;5071656;28;20052;-78
2021/11/08 09:30:54;;;;;;;250.35;227.57;;;;;;;12.54;100.00;101061.97;5068978;28;20629;-79
2021/11/08 09:33:21;;;;;;;252.82;229.77;;;;;;;12.50;100.00;101058.09;5070362;28;20425;-80
2021/11/08 09:35:49;;;;;;;248.23;224.32;;;;;;;12.58;100.00;101047.19;5068469;28;20040;-78
2021/11/08 09:38:18;;;;;;;232.73;209.13;;;;;;;12.26;100.00;101054.28;5071868;28;20136;-78
2021/11/08 09:40:45;;;;;;;247.50;223.32;;;;;;;12.51;100.00;101043.75;5070522;28;20045;-79
2021/11/08 09:43:15;;;;;;;280.90;254.40;;;;;;;12.72;100.00;101040.78;5071297;28;20051;-79
2021/11/08 09:45:44;;;;;;;262.38;236.82;;;;;;;12.54;100.00;101053.97;5068651;28;20471;-78
2021/11/08 09:48:12;;;;;;;271.13;245.63;;;;;;;12.69;100.00;101029.75;5069087;28;20114;-77
2021/11/08 09:50:40;;;;;;;267.88;242.40;;;;;;;12.32;100.00;101050.78;5063963;28;20075;-78
2021/11/08 09:53:08;;;;;;;267.00;241.38;;;;;;;12.68;100.00;101031.59;5069265;28;20052;-78
2021/11/08 09:55:35;;;;;;;262.13;237.52;;;;;;;12.52;100.00;101029.38;5069099;28;20086;-78
2021/11/08 09:58:04;;;;;;;262.98;238.32;;;;;;;12.47;100.00;101034.53;5069181;28;20048;-77
2021/11/08 10:00:47;;;;;;;275.25;249.95;;;;;;;12.56;100.00;101028.75;5067147;28;20053;-78
2021/11/08 10:03:16;;;;;;;244.45;220.05;;;;;;;12.69;100.00;101033.22;5073801;28;20059;-77
2021/11/08 10:05:47;;;;;;;200.63;179.43;;;;;;;12.93;100.00;101044.19;5079353;28;20037;-79
2021/11/08 10:08:16;;;;;;;247.80;224.07;;;;;;;12.60;100.00;101050.47;5077627;28;20465;-77
2021/11/08 10:10:43;;;;;;;253.70;228.93;;;;;;;13.22;100.00;101054.28;5072340;28;20045;-81
2021/11/08 10:13:12;;;;;;;241.80;218.88;;;;;;;13.17;100.00;101051.41;5074141;28;20052;-77
2021/11/08 10:15:41;;;;;;;275.77;250.23;;;;;;;12.85;100.00;101053.22;5074863;28;20049;-78
2021/11/08 10:18:11;;;;;;;246.57;222.75;;;;;;;13.10;100.00;101052.47;5075829;28;20096;-78
2021/11/08 10:20:39;;;;;;;255.70;231.95;;;;;;;12.98;100.00;101053.19;5073720;28;20052;-79
2021/11/08 10:23:08;;;;;;;254.63;231.00;;;;;;;13.25;100.00;101053.03;5074365;28;20047;-78
2021/11/08 10:25:37;;;;;;;201.32;181.35;;;;;;;13.13;100.00;101060.03;5073874;28;20044;-81
2021/11/08 10:28:09;;;;;;;218.93;197.43;;;;;;;13.31;100.00;101059.34;5073095;28;20051;-78
2021/11/08 10:30:37;;;;;;;215.73;195.18;;;;;;;12.93;100.00;101058.31;5071678;28;20044;-77
2021/11/08 10:33:06;;;;;;;215.13;194.32;;;;;;;13.31;100.00;101043.34;5072859;28;20106;-77
2021/11/08 10:35:41;;;;;;;177.18;159.07;;;;;;;13.41;100.00;101059.72;5075409;28;20102;-79
2021/11/08 10:38:10;;;;;;;196.95;175.45;;;;;;;12.62;100.00;101061.75;5070120;28;20041;-79
2021/11/08 10:40:43;;;;;;;236.60;213.25;;;;;;;12.61;100.00;101065.41;5073231;28;20125;-79
2021/11/08 10:43:11;;;;;;;251.13;226.68;;;;;;;12.34;100.00;101057.53;5071207;28;20049;-78
2021/11/08 10:45:48;;;;;;;272.80;247.25;;;;;;;12.78;100.00;101049.78;5071555;28;20051;-77
2021/11/08 10:48:20;;;;;;;249.70;225.65;;;;;;;12.81;100.00;101042.19;5072354;28;20127;-78
2021/11/08 10:50:50;;;;;;;248.70;224.40;;;;;;;12.53;100.00;101060.34;5074810;28;20061;-79
2021/11/08 10:53:17;;;;;;;235.35;212.02;;;;;;;12.49;100.00;101061.78;5080757;28;20110;-78
2021/11/08 10:55:49;;;;;;;236.50;213.02;;;;;;;12.76;100.00;101057.16;5072177;28;20468;-78
2021/11/08 10:58:19;;;;;;;224.27;202.43;;;;;;;12.41;100.00;101054.84;5081326;28;20102;-77
2021/11/08 11:00:52;;;;;;;246.93;223.00;;;;;;;12.55;100.00;101051.09;5071052;28;20302;-78
2021/11/08 11:03:20;;;;;;;241.23;217.38;;;;;;;12.67;100.00;101047.78;5068977;28;20550;-77
2021/11/08 11:05:56;;;;;;;215.98;193.43;;;;;;;12.83;100.00;101052.63;5074519;28;20053;-79
2021/11/08 11:08:22;;;;;;;229.00;205.57;;;;;;;12.33;100.00;101053.22;5072938;28;20114;-78
2021/11/08 11:10:55;;;;;;;272.15;247.40;;;;;;;12.97;100.00;101046.19;5072019;28;20436;-77
2021/11/08 11:13:23;;;;;;;238.68;215.70;;;;;;;12.72;100.00;101054.13;5071903;28;20052;-78
2021/11/08 11:15:51;;;;;;;234.23;211.25;;;;;;;12.69;100.00;101053.72;5069487;28;20047;-78
2021/11/08 11:18:19;;;;;;;226.90;204.68;;;;;;;12.65;100.00;101072.00;5072361;28;20049;-78
2021/11/08 11:20:48;;;;;;;237.63;214.27;;;;;;;12.65;100.00;101072.00;5074044;28;20043;-77
2021/11/08 11:23:26;;;;;;;236.60;213.15;;;;;;;12.30;100.00;101072.28;5079771;28;20457;-77
2021/11/08 11:25:59;;;;;;;252.98;228.15;;;;;;;12.00;100.00;101071.09;5074966;28;20057;-79
2021/11/08 11:28:31;;;;;;;242.00;217.60;;;;;;;12.06;100.00;101055.13;5072995;28;20040;-79
2021/11/08 11:30:58;;;;;;;219.05;196.15;;;;;;;11.99;100.00;101072.13;5073475;28;20045;-78
2021/11/08 11:33:29;;;;;;;246.55;223.02;;;;;;;11.95;100.00;101079.69;5073113;28;20041;-80
2021/11/08 11:36:04;;;;;;;267.83;241.05;;;;;;;12.13;100.00;101079.91;5072928;28;20401;-78
2021/11/08 11:38:36;;;;;;;258.95;233.88;;;;;;;12.29;100.00;101072.50;5071743;28;20053;-78
2021/11/08 11:41:09;;;;;;;236.77;213.02;;;;;;;12.38;100.00;101056.09;5071544;28;20052;-77
2021/11/08 11:43:39;;;;;;;240.88;217.02;;;;;;;12.52;100.00;101062.16;5072355;28;20041;-79
2021/11/08 11:46:07;;;;;;;243.45;219.75;;;;;;;12.22;100.00;101063.69;5076017;28;20055;-78
2021/11/08 11:48:36;;;;;;;256.50;231.13;;;;;;;12.41;100.00;101067.34;5075884;28;20127;-78
2021/11/08 11:51:04;;;;;;;239.52;215.38;;;;;;;12.45;100.00;101063.25;5072175;28;20048;-78
2021/11/08 11:53:34;;;;;;;247.23;223.68;;;;;;;12.35;100.00;101061.81;5073252;28;20040;-78
2021/11/08 11:56:01;;;;;;;246.45;222.00;;;;;;;13.04;100.00;101075.47;5075768;28;20435;-79
2021/11/08 11:58:29;;;;;;;270.40;245.23;;;;;;;12.46;100.00;101091.50;5070403;28;20040;-78
2021/11/08 12:00:58;;;;;;;224.27;201.85;;;;;;;12.59;100.00;101080.81;5072833;28;20055;-78
2021/11/08 12:03:25;;;;;;;208.52;186.98;;;;;;;12.71;100.00;101073.81;5076133;28;20055;-78
2021/11/08 12:05:55;;;;;;;242.23;219.55;;;;;;;12.42;100.00;101080.44;5072202;28;20125;-79
2021/11/08 12:08:23;;;;;;;247.32;223.18;;;;;;;12.63;100.00;101081.22;5070992;28;20122;-78
2021/11/08 12:10:53;;;;;;;244.05;219.55;;;;;;;12.45;100.00;101068.56;5073010;28;20044;-76
2021/11/08 12:13:23;;;;;;;273.70;246.75;;;;;;;12.63;100.00;101068.69;5073355;28;20516;-77
2021/11/08 12:15:51;;;;;;;248.30;223.65;;;;;;;12.36;100.00;101063.44;5071879;28;20121;-78